This is the latest recevied weather packets stored in our database for station/object AF9W-5. If no packets are shown the sender has not sent any weather packets the latest 10 day(s).
| Time | Temp. | Humidity | Pressure | Rain* | Wind** | Luminosity | Snow |
|---|---|---|---|---|---|---|---|
| 1777689545 | 23.33° C | 26% | 1011.2 hPa | 0 mm | - | 0 W/m² | - |
| 1777689242 | 23.89° C | 25% | 1011.2 hPa | 0 mm | - | 0 W/m² | - |
| 1777688940 | 23.89° C | 25% | 1011 hPa | 0 mm | - | 0 W/m² | - |
| 1777688635 | 23.89° C | 25% | 1011.1 hPa | 0 mm | - | 0 W/m² | - |
| 1777688333 | 24.44° C | 25% | 1010.9 hPa | 0 mm | - | 0 W/m² | - |
| 1777688030 | 24.44° C | 25% | 1010.6 hPa | 0 mm | - | 1 W/m² | - |
| 1777674090 | 27.78° C | 21% | 1010.7 hPa | 0 mm | - | 597 W/m² | - |
| 1777673787 | 28.33° C | 21% | 1010.6 hPa | 0 mm | - | 618 W/m² | - |
| 1777673484 | 28.33° C | 21% | 1010.7 hPa | 0 mm | - | 627 W/m² | - |
| 1777673182 | 27.78° C | 22% | 1010.4 hPa | 0 mm | - | 636 W/m² | - |
| 1777672879 | 29.44° C | 21% | 1010.9 hPa | 0 mm | - | 669 W/m² | - |
| 1777672576 | 29.44° C | 21% | 1010.7 hPa | 0 mm | - | 669 W/m² | - |
| 1777672271 | 28.89° C | 21% | 1010.9 hPa | 0 mm | - | 674 W/m² | - |
| 1777671966 | 28.89° C | 22% | 1010.8 hPa | 0 mm | - | 687 W/m² | - |
| 1777671359 | 27.78° C | 22% | 1011 hPa | 0 mm | - | 705 W/m² | - |
| 1777670751 | 28.89° C | 22% | 1011.3 hPa | 0 mm | - | 726 W/m² | - |
| 1777670448 | 28.33° C | 22% | 1011 hPa | 0 mm | - | 737 W/m² | - |
| 1777670145 | 27.22° C | 23% | 1011.3 hPa | 0 mm | - | 747 W/m² | - |
| 1777669844 | 27.78° C | 23% | 1011.3 hPa | 0 mm | - | 757 W/m² | - |
| 1777669539 | 27.78° C | 23% | 1011.4 hPa | 0 mm | - | 766 W/m² | - |
| 1777669236 | 27.78° C | 23% | 1011.4 hPa | 0 mm | - | 774 W/m² | - |
| 1777668933 | 27.78° C | 23% | 1011.4 hPa | 0 mm | - | 783 W/m² | - |
| 1777668631 | 28.89° C | 23% | 1011.5 hPa | 0 mm | - | 788 W/m² | - |
| 1777667720 | 28.33° C | 24% | 1011.3 hPa | 0 mm | - | 810 W/m² | - |
| 1777667114 | 29.44° C | 24% | 1011.5 hPa | 0 mm | - | 823 W/m² | - |
* Rain latest hour (hover to see other rain measurements)
** Current wind speed in m/s (hover to see current wind gust speed)